Northrop F-5 from Turkish Stars at Volkel.
 Regi:Demo  LARGER
 MSN Year:
 Date of picture:2007-06-13 17:25
 Discription:Members of the Turkish Stars display team.
 Logs:
 Metar 13/06/2007 17:25 METAR EHVK 131725Z AUTO 31004KT 7000NDV FEW220/// 20/15 Q1007 WHT=
 Hits: 466 ID: 48

Debriefing: Photographed movements of Airports in NW-Europe.
The images of our site attendant is in authorisation from Queen of Sky.
Copying of images of this site have been prohibited in which manner without the authorisation of the photographer.
In behalf of the crew :"Thank you visiting us" - Contact
Factsheets Northrop, F-5, Turkish Stars, made by De Plane! © 2006 - 2022 All rights reserved


.